sensor_id;sensor_type;location;lat;lon;timestamp;pressure;altitude;pressure_sealevel;temperature;humidity
11810;BME280;5962;41.566;23.734;2024-02-16T00:01:10;95855.34;;;2.88;95.29
11810;BME280;5962;41.566;23.734;2024-02-16T00:03:38;95856.97;;;2.89;95.87
11810;BME280;5962;41.566;23.734;2024-02-16T00:06:07;95855.72;;;2.85;96.78
11810;BME280;5962;41.566;23.734;2024-02-16T00:08:35;95858.88;;;2.81;96.65
11810;BME280;5962;41.566;23.734;2024-02-16T00:11:05;95864.47;;;2.78;97.13
11810;BME280;5962;41.566;23.734;2024-02-16T00:13:33;95861.41;;;2.75;96.81
11810;BME280;5962;41.566;23.734;2024-02-16T00:16:01;95860.50;;;2.68;96.20
11810;BME280;5962;41.566;23.734;2024-02-16T00:18:29;95859.03;;;2.65;94.97
11810;BME280;5962;41.566;23.734;2024-02-16T00:20:57;95865.75;;;2.68;94.76
11810;BME280;5962;41.566;23.734;2024-02-16T00:23:26;95874.66;;;2.59;96.01
11810;BME280;5962;41.566;23.734;2024-02-16T00:25:54;95865.38;;;2.56;96.65
11810;BME280;5962;41.566;23.734;2024-02-16T00:28:22;95866.25;;;2.49;97.32
11810;BME280;5962;41.566;23.734;2024-02-16T00:30:50;95873.66;;;2.45;98.18
11810;BME280;5962;41.566;23.734;2024-02-16T00:33:18;95873.66;;;2.45;98.35
11810;BME280;5962;41.566;23.734;2024-02-16T00:35:46;95876.44;;;2.44;98.81
11810;BME280;5962;41.566;23.734;2024-02-16T00:38:16;95878.41;;;2.42;99.34
11810;BME280;5962;41.566;23.734;2024-02-16T00:40:45;95887.06;;;2.42;99.54
11810;BME280;5962;41.566;23.734;2024-02-16T00:43:13;95879.56;;;2.39;99.83
11810;BME280;5962;41.566;23.734;2024-02-16T00:45:41;95879.31;;;2.34;100.00
11810;BME280;5962;41.566;23.734;2024-02-16T00:48:11;95881.75;;;2.36;100.00
11810;BME280;5962;41.566;23.734;2024-02-16T00:50:39;95887.31;;;2.33;100.00
11810;BME280;5962;41.566;23.734;2024-02-16T00:53:09;95882.63;;;2.28;100.00
11810;BME280;5962;41.566;23.734;2024-02-16T00:55:37;95880.56;;;2.24;100.00
11810;BME280;5962;41.566;23.734;2024-02-16T00:58:09;95878.47;;;2.19;100.00
11810;BME280;5962;41.566;23.734;2024-02-16T01:00:37;95883.41;;;2.14;98.75
11810;BME280;5962;41.566;23.734;2024-02-16T01:03:05;95884.72;;;2.10;99.38
11810;BME280;5962;41.566;23.734;2024-02-16T01:05:33;95881.84;;;2.05;99.85
11810;BME280;5962;41.566;23.734;2024-02-16T01:08:02;95888.22;;;2.03;100.00
11810;BME280;5962;41.566;23.734;2024-02-16T01:10:30;95881.84;;;2.05;100.00
11810;BME280;5962;41.566;23.734;2024-02-16T01:12:58;95884.91;;;2.09;100.00
11810;BME280;5962;41.566;23.734;2024-02-16T01:15:27;95881.31;;;2.10;100.00
11810;BME280;5962;41.566;23.734;2024-02-16T01:17:55;95873.13;;;2.13;100.00
11810;BME280;5962;41.566;23.734;2024-02-16T01:20:23;95877.25;;;2.07;100.00
11810;BME280;5962;41.566;23.734;2024-02-16T01:22:51;95876.72;;;2.12;100.00
11810;BME280;5962;41.566;23.734;2024-02-16T01:25:20;95869.06;;;2.10;100.00
11810;BME280;5962;41.566;23.734;2024-02-16T01:27:48;95870.41;;;2.06;100.00
11810;BME280;5962;41.566;23.734;2024-02-16T01:30:16;95869.94;;;2.03;100.00
11810;BME280;5962;41.566;23.734;2024-02-16T01:32:46;95863.56;;;2.05;100.00
11810;BME280;5962;41.566;23.734;2024-02-16T01:35:14;95868.16;;;2.03;100.00
11810;BME280;5962;41.566;23.734;2024-02-16T01:37:43;95862.63;;;1.98;100.00
11810;BME280;5962;41.566;23.734;2024-02-16T01:40:11;95867.69;;;2.00;100.00
11810;BME280;5962;41.566;23.734;2024-02-16T01:42:41;95864.59;;;1.96;100.00
11810;BME280;5962;41.566;23.734;2024-02-16T01:45:10;95841.25;;;1.81;100.00
11810;BME280;5962;41.566;23.734;2024-02-16T01:47:39;95872.44;;;1.96;100.00
11810;BME280;5962;41.566;23.734;2024-02-16T01:50:10;95861.28;;;2.02;100.00
11810;BME280;5962;41.566;23.734;2024-02-16T01:52:39;95866.53;;;2.02;100.00
11810;BME280;5962;41.566;23.734;2024-02-16T01:55:07;95853.81;;;1.99;100.00
11810;BME280;5962;41.566;23.734;2024-02-16T01:57:38;95858.38;;;1.97;100.00
11810;BME280;5962;41.566;23.734;2024-02-16T02:00:07;95865.06;;;2.00;100.00
11810;BME280;5962;41.566;23.734;2024-02-16T02:02:35;95851.72;;;1.95;100.00
11810;BME280;5962;41.566;23.734;2024-02-16T02:05:04;95861.19;;;1.96;100.00
11810;BME280;5962;41.566;23.734;2024-02-16T02:07:34;95850.09;;;1.94;100.00
11810;BME280;5962;41.566;23.734;2024-02-16T02:10:02;95859.09;;;1.91;100.00
11810;BME280;5962;41.566;23.734;2024-02-16T02:12:30;95853.13;;;1.83;100.00
11810;BME280;5962;41.566;23.734;2024-02-16T02:14:58;95854.63;;;1.78;100.00
11810;BME280;5962;41.566;23.734;2024-02-16T02:17:26;95857.06;;;1.79;100.00
11810;BME280;5962;41.566;23.734;2024-02-16T02:19:54;95848.97;;;1.74;100.00
11810;BME280;5962;41.566;23.734;2024-02-16T02:22:23;95855.50;;;1.70;100.00
11810;BME280;5962;41.566;23.734;2024-02-16T02:24:53;95853.47;;;1.58;100.00
11810;BME280;5962;41.566;23.734;2024-02-16T02:27:22;95851.50;;;1.60;100.00
11810;BME280;5962;41.566;23.734;2024-02-16T02:29:50;95842.88;;;1.59;100.00
11810;BME280;5962;41.566;23.734;2024-02-16T02:32:18;95844.50;;;1.60;100.00
11810;BME280;5962;41.566;23.734;2024-02-16T02:34:46;95835.94;;;1.66;100.00
11810;BME280;5962;41.566;23.734;2024-02-16T02:37:14;95843.59;;;1.68;100.00
11810;BME280;5962;41.566;23.734;2024-02-16T02:39:44;95844.75;;;1.65;100.00
11810;BME280;5962;41.566;23.734;2024-02-16T02:42:12;95843.31;;;1.63;100.00
11810;BME280;5962;41.566;23.734;2024-02-16T02:44:40;95844.50;;;1.60;100.00
11810;BME280;5962;41.566;23.734;2024-02-16T02:47:10;95848.25;;;1.58;100.00
11810;BME280;5962;41.566;23.734;2024-02-16T02:49:38;95845.97;;;1.55;100.00
11810;BME280;5962;41.566;23.734;2024-02-16T02:52:06;95837.53;;;1.53;100.00
11810;BME280;5962;41.566;23.734;2024-02-16T02:54:34;95839.03;;;1.47;100.00
11810;BME280;5962;41.566;23.734;2024-02-16T02:57:04;95845.84;;;1.48;100.00
11810;BME280;5962;41.566;23.734;2024-02-16T02:59:32;95847.53;;;1.41;100.00
11810;BME280;5962;41.566;23.734;2024-02-16T03:02:00;95857.47;;;1.46;100.00
11810;BME280;5962;41.566;23.734;2024-02-16T03:04:28;95852.00;;;1.55;100.00
11810;BME280;5962;41.566;23.734;2024-02-16T03:06:56;95855.16;;;1.51;100.00
11810;BME280;5962;41.566;23.734;2024-02-16T03:09:24;95849.94;;;1.51;100.00
11810;BME280;5962;41.566;23.734;2024-02-16T03:11:52;95852.25;;;1.46;100.00
11810;BME280;5962;41.566;23.734;2024-02-16T03:14:22;95855.50;;;1.48;100.00
11810;BME280;5962;41.566;23.734;2024-02-16T03:16:50;95851.94;;;1.41;100.00
11810;BME280;5962;41.566;23.734;2024-02-16T03:19:18;95854.25;;;1.36;100.00
11810;BME280;5962;41.566;23.734;2024-02-16T03:21:47;95857.03;;;1.34;100.00
11810;BME280;5962;41.566;23.734;2024-02-16T03:24:15;95866.19;;;1.30;100.00
11810;BME280;5962;41.566;23.734;2024-02-16T03:26:43;95860.94;;;1.38;100.00
11810;BME280;5962;41.566;23.734;2024-02-16T03:29:10;95864.81;;;1.42;100.00
11810;BME280;5962;41.566;23.734;2024-02-16T03:31:40;95866.19;;;1.30;100.00
11810;BME280;5962;41.566;23.734;2024-02-16T03:34:08;95870.66;;;1.22;100.00
11810;BME280;5962;41.566;23.734;2024-02-16T03:36:36;95867.56;;;1.18;100.00
11810;BME280;5962;41.566;23.734;2024-02-16T03:39:04;95876.66;;;1.22;100.00
11810;BME280;5962;41.566;23.734;2024-02-16T03:41:35;95872.81;;;1.10;100.00
11810;BME280;5962;41.566;23.734;2024-02-16T03:44:03;95877.56;;;1.07;100.00
11810;BME280;5962;41.566;23.734;2024-02-16T03:46:31;95877.75;;;1.05;100.00
11810;BME280;5962;41.566;23.734;2024-02-16T03:49:00;95875.94;;;1.06;100.00
11810;BME280;5962;41.566;23.734;2024-02-16T03:51:28;95876.75;;;1.06;100.00
11810;BME280;5962;41.566;23.734;2024-02-16T03:53:57;95884.06;;;1.11;100.00
11810;BME280;5962;41.566;23.734;2024-02-16T03:56:25;95885.84;;;1.10;100.00
11810;BME280;5962;41.566;23.734;2024-02-16T03:58:53;95879.78;;;1.18;100.00
11810;BME280;5962;41.566;23.734;2024-02-16T04:01:21;95880.03;;;1.00;100.00
11810;BME280;5962;41.566;23.734;2024-02-16T04:03:49;95896.72;;;0.92;100.00
11810;BME280;5962;41.566;23.734;2024-02-16T04:06:21;95891.03;;;0.80;100.00
11810;BME280;5962;41.566;23.734;2024-02-16T04:08:49;95892.19;;;0.70;100.00
11810;BME280;5962;41.566;23.734;2024-02-16T04:11:16;95897.13;;;0.57;100.00
11810;BME280;5962;41.566;23.734;2024-02-16T04:13:44;95898.59;;;0.51;100.00
11810;BME280;5962;41.566;23.734;2024-02-16T04:16:12;95893.88;;;0.47;100.00
11810;BME280;5962;41.566;23.734;2024-02-16T04:18:40;95894.53;;;0.49;100.00
11810;BME280;5962;41.566;23.734;2024-02-16T04:21:08;95903.16;;;0.49;100.00
11810;BME280;5962;41.566;23.734;2024-02-16T04:23:38;95904.81;;;0.42;100.00
11810;BME280;5962;41.566;23.734;2024-02-16T04:26:06;95904.81;;;0.42;100.00
11810;BME280;5962;41.566;23.734;2024-02-16T04:28:34;95914.41;;;0.50;100.00
11810;BME280;5962;41.566;23.734;2024-02-16T04:31:02;95910.31;;;0.47;100.00
11810;BME280;5962;41.566;23.734;2024-02-16T04:33:30;95906.75;;;0.48;100.00
11810;BME280;5962;41.566;23.734;2024-02-16T04:35:58;95904.50;;;0.45;100.00
11810;BME280;5962;41.566;23.734;2024-02-16T04:38:26;95911.47;;;0.45;100.00
11810;BME280;5962;41.566;23.734;2024-02-16T04:40:55;95907.72;;;0.55;100.00
11810;BME280;5962;41.566;23.734;2024-02-16T04:43:23;95909.16;;;0.58;100.00
11810;BME280;5962;41.566;23.734;2024-02-16T04:45:51;95909.34;;;0.48;100.00
11810;BME280;5962;41.566;23.734;2024-02-16T04:48:20;95905.25;;;0.54;100.00
11810;BME280;5962;41.566;23.734;2024-02-16T04:50:49;95907.25;;;0.52;100.00
11810;BME280;5962;41.566;23.734;2024-02-16T04:53:17;95910.00;;;0.50;100.00
11810;BME280;5962;41.566;23.734;2024-02-16T04:55:45;95914.09;;;0.53;100.00
11810;BME280;5962;41.566;23.734;2024-02-16T04:58:14;95910.66;;;0.52;100.00
11810;BME280;5962;41.566;23.734;2024-02-16T05:00:42;95903.50;;;0.54;100.00
11810;BME280;5962;41.566;23.734;2024-02-16T05:03:13;95909.50;;;0.63;100.00
11810;BME280;5962;41.566;23.734;2024-02-16T05:05:41;95907.06;;;0.53;100.00
11810;BME280;5962;41.566;23.734;2024-02-16T05:08:10;95910.34;;;0.55;100.00
11810;BME280;5962;41.566;23.734;2024-02-16T05:10:38;95896.13;;;0.66;100.00
11810;BME280;5962;41.566;23.734;2024-02-16T05:13:06;95903.97;;;0.66;100.00
11810;BME280;5962;41.566;23.734;2024-02-16T05:15:35;95899.38;;;0.68;100.00
11810;BME280;5962;41.566;23.734;2024-02-16T05:18:04;95908.19;;;0.67;100.00
11810;BME280;5962;41.566;23.734;2024-02-16T05:20:32;95898.38;;;0.69;100.00
11810;BME280;5962;41.566;23.734;2024-02-16T05:23:00;95909.47;;;0.71;100.00
11810;BME280;5962;41.566;23.734;2024-02-16T05:25:28;95906.91;;;0.63;100.00
11810;BME280;5962;41.566;23.734;2024-02-16T05:27:56;95903.97;;;0.66;100.00
11810;BME280;5962;41.566;23.734;2024-02-16T05:30:25;95905.75;;;0.65;100.00
11810;BME280;5962;41.566;23.734;2024-02-16T05:32:55;95917.47;;;0.69;100.00
11810;BME280;5962;41.566;23.734;2024-02-16T05:35:25;95918.91;;;0.72;100.00
11810;BME280;5962;41.566;23.734;2024-02-16T05:37:55;95914.19;;;0.75;100.00
11810;BME280;5962;41.566;23.734;2024-02-16T05:40:23;95919.22;;;0.85;100.00
11810;BME280;5962;41.566;23.734;2024-02-16T05:42:54;95917.72;;;0.98;100.00
11810;BME280;5962;41.566;23.734;2024-02-16T05:45:24;95918.38;;;1.00;100.00
11810;BME280;5962;41.566;23.734;2024-02-16T05:47:54;95922.41;;;1.02;100.00
11810;BME280;5962;41.566;23.734;2024-02-16T05:50:22;95919.31;;;1.07;100.00
11810;BME280;5962;41.566;23.734;2024-02-16T05:52:50;95926.28;;;1.14;100.00
11810;BME280;5962;41.566;23.734;2024-02-16T05:55:19;95926.59;;;1.19;100.00
11810;BME280;5962;41.566;23.734;2024-02-16T05:57:47;95927.88;;;1.23;100.00
11810;BME280;5962;41.566;23.734;2024-02-16T06:00:15;95933.88;;;1.32;100.00
11810;BME280;5962;41.566;23.734;2024-02-16T06:02:43;95934.69;;;1.32;100.00
11810;BME280;5962;41.566;23.734;2024-02-16T06:05:13;95921.19;;;1.21;100.00
11810;BME280;5962;41.566;23.734;2024-02-16T06:07:41;95945.59;;;1.36;100.00
11810;BME280;5962;41.566;23.734;2024-02-16T06:10:09;95943.22;;;1.57;100.00
11810;BME280;5962;41.566;23.734;2024-02-16T06:12:38;95946.47;;;1.59;100.00
11810;BME280;5962;41.566;23.734;2024-02-16T06:15:07;95952.84;;;1.56;100.00
11810;BME280;5962;41.566;23.734;2024-02-16T06:17:35;95951.09;;;1.49;100.00
11810;BME280;5962;41.566;23.734;2024-02-16T06:20:04;95953.25;;;1.37;100.00
11810;BME280;5962;41.566;23.734;2024-02-16T06:22:37;95959.78;;;1.41;100.00
11810;BME280;5962;41.566;23.734;2024-02-16T06:25:05;95958.00;;;1.34;100.00
11810;BME280;5962;41.566;23.734;2024-02-16T06:27:55;95961.47;;;1.26;100.00
11810;BME280;5962;41.566;23.734;2024-02-16T06:30:24;95962.28;;;1.27;100.00
11810;BME280;5962;41.566;23.734;2024-02-16T06:32:52;95955.25;;;1.27;100.00
11810;BME280;5962;41.566;23.734;2024-02-16T06:35:21;95952.13;;;1.32;100.00
11810;BME280;5962;41.566;23.734;2024-02-16T06:37:50;95963.41;;;1.24;100.00
11810;BME280;5962;41.566;23.734;2024-02-16T06:40:18;95962.28;;;1.27;100.00
11810;BME280;5962;41.566;23.734;2024-02-16T06:42:47;95959.84;;;1.25;100.00
11810;BME280;5962;41.566;23.734;2024-02-16T06:45:15;95968.50;;;1.26;100.00
11810;BME280;5962;41.566;23.734;2024-02-16T06:47:43;95965.31;;;1.38;100.00
11810;BME280;5962;41.566;23.734;2024-02-16T06:50:11;95970.47;;;1.54;100.00
11810;BME280;5962;41.566;23.734;2024-02-16T06:52:39;95965.69;;;1.66;100.00
11810;BME280;5962;41.566;23.734;2024-02-16T06:55:09;95973.28;;;1.75;100.00
11810;BME280;5962;41.566;23.734;2024-02-16T06:57:37;95965.78;;;1.80;100.00
11810;BME280;5962;41.566;23.734;2024-02-16T07:00:06;95965.38;;;1.91;100.00
11810;BME280;5962;41.566;23.734;2024-02-16T07:02:35;95956.63;;;2.06;100.00
11810;BME280;5962;41.566;23.734;2024-02-16T07:05:03;95961.59;;;2.16;100.00
11810;BME280;5962;41.566;23.734;2024-02-16T07:07:32;95966.78;;;2.24;100.00
11810;BME280;5962;41.566;23.734;2024-02-16T07:10:02;95963.13;;;2.33;100.00
11810;BME280;5962;41.566;23.734;2024-02-16T07:12:33;95959.97;;;2.37;100.00
11810;BME280;5962;41.566;23.734;2024-02-16T07:15:01;95956.25;;;2.54;100.00
11810;BME280;5962;41.566;23.734;2024-02-16T07:17:29;95962.75;;;2.58;100.00
11810;BME280;5962;41.566;23.734;2024-02-16T07:19:57;95962.22;;;2.63;100.00
11810;BME280;5962;41.566;23.734;2024-02-16T07:22:25;95956.47;;;2.67;100.00
11810;BME280;5962;41.566;23.734;2024-02-16T07:24:53;95965.53;;;2.57;100.00
11810;BME280;5962;41.566;23.734;2024-02-16T07:27:21;95954.72;;;2.60;100.00
11810;BME280;5962;41.566;23.734;2024-02-16T07:29:50;95958.31;;;2.59;100.00
11810;BME280;5962;41.566;23.734;2024-02-16T07:32:18;95956.53;;;2.59;100.00
11810;BME280;5962;41.566;23.734;2024-02-16T07:34:47;95950.88;;;2.70;100.00
11810;BME280;5962;41.566;23.734;2024-02-16T07:37:15;95957.09;;;2.83;100.00
11810;BME280;5962;41.566;23.734;2024-02-16T07:39:43;95954.19;;;3.01;100.00
11810;BME280;5962;41.566;23.734;2024-02-16T07:42:11;95950.28;;;3.11;100.00
11810;BME280;5962;41.566;23.734;2024-02-16T07:44:39;95952.88;;;3.11;100.00
11810;BME280;5962;41.566;23.734;2024-02-16T07:47:09;95947.75;;;3.18;100.00
11810;BME280;5962;41.566;23.734;2024-02-16T07:49:38;95950.00;;;3.21;100.00
11810;BME280;5962;41.566;23.734;2024-02-16T07:52:06;95953.00;;;3.32;100.00
11810;BME280;5962;41.566;23.734;2024-02-16T07:54:34;95948.47;;;3.41;100.00
11810;BME280;5962;41.566;23.734;2024-02-16T07:57:03;95947.66;;;3.55;100.00
11810;BME280;5962;41.566;23.734;2024-02-16T07:59:31;95944.72;;;3.64;100.00
11810;BME280;5962;41.566;23.734;2024-02-16T08:01:59;95945.06;;;3.75;100.00
11810;BME280;5962;41.566;23.734;2024-02-16T08:04:29;95950.94;;;3.77;100.00
11810;BME280;5962;41.566;23.734;2024-02-16T08:06:57;95945.44;;;3.72;100.00
11810;BME280;5962;41.566;23.734;2024-02-16T08:09:27;95948.03;;;3.87;100.00
11810;BME280;5962;41.566;23.734;2024-02-16T08:11:56;95946.91;;;3.75;100.00
11810;BME280;5962;41.566;23.734;2024-02-16T08:14:24;95941.25;;;3.78;100.00
11810;BME280;5962;41.566;23.734;2024-02-16T08:16:53;95945.66;;;3.92;100.00
11810;BME280;5962;41.566;23.734;2024-02-16T08:19:23;95947.25;;;4.07;100.00
11810;BME280;5962;41.566;23.734;2024-02-16T08:21:53;95943.88;;;4.34;100.00
11810;BME280;5962;41.566;23.734;2024-02-16T08:24:21;95951.13;;;4.32;100.00
11810;BME280;5962;41.566;23.734;2024-02-16T08:26:49;95942.31;;;4.40;100.00
11810;BME280;5962;41.566;23.734;2024-02-16T08:29:17;95943.66;;;4.57;100.00
11810;BME280;5962;41.566;23.734;2024-02-16T08:31:47;95949.16;;;4.62;100.00
11810;BME280;5962;41.566;23.734;2024-02-16T08:34:15;95946.03;;;4.72;100.00
11810;BME280;5962;41.566;23.734;2024-02-16T08:36:44;95950.31;;;4.80;98.79
11810;BME280;5962;41.566;23.734;2024-02-16T08:39:13;95947.31;;;4.83;98.33
11810;BME280;5962;41.566;23.734;2024-02-16T08:41:42;95945.16;;;4.93;98.29
11810;BME280;5962;41.566;23.734;2024-02-16T08:44:11;95938.97;;;5.00;97.35
11810;BME280;5962;41.566;23.734;2024-02-16T08:46:39;95932.56;;;5.09;95.69
11810;BME280;5962;41.566;23.734;2024-02-16T08:49:07;95928.56;;;5.20;95.45
11810;BME280;5962;41.566;23.734;2024-02-16T08:51:36;95929.03;;;5.30;94.56
11810;BME280;5962;41.566;23.734;2024-02-16T08:54:04;95933.75;;;5.41;93.60
11810;BME280;5962;41.566;23.734;2024-02-16T08:56:35;95937.47;;;5.53;92.22
11810;BME280;5962;41.566;23.734;2024-02-16T08:59:05;95932.44;;;5.64;90.08
11810;BME280;5962;41.566;23.734;2024-02-16T09:01:35;95923.66;;;5.84;88.35
11810;BME280;5962;41.566;23.734;2024-02-16T09:04:03;95919.69;;;6.08;85.47
11810;BME280;5962;41.566;23.734;2024-02-16T09:06:31;95913.47;;;6.35;83.09
11810;BME280;5962;41.566;23.734;2024-02-16T09:09:01;95910.84;;;6.67;82.34
11810;BME280;5962;41.566;23.734;2024-02-16T09:11:30;95914.09;;;6.82;82.48
11810;BME280;5962;41.566;23.734;2024-02-16T09:13:59;95904.38;;;6.95;77.22
11810;BME280;5962;41.566;23.734;2024-02-16T09:16:27;95913.88;;;7.03;79.01
11810;BME280;5962;41.566;23.734;2024-02-16T09:18:55;95905.75;;;7.04;78.87
11810;BME280;5962;41.566;23.734;2024-02-16T09:21:23;95912.44;;;7.07;80.50
11810;BME280;5962;41.566;23.734;2024-02-16T09:23:53;95908.59;;;7.03;80.73
11810;BME280;5962;41.566;23.734;2024-02-16T09:26:25;95917.91;;;7.05;80.68
11810;BME280;5962;41.566;23.734;2024-02-16T09:28:56;95907.38;;;7.05;79.25
11810;BME280;5962;41.566;23.734;2024-02-16T09:31:26;95911.63;;;7.06;78.27
11810;BME280;5962;41.566;23.734;2024-02-16T09:33:54;95906.16;;;7.08;77.77
11810;BME280;5962;41.566;23.734;2024-02-16T09:36:22;95900.69;;;7.09;77.50
11810;BME280;5962;41.566;23.734;2024-02-16T09:38:50;95894.56;;;7.22;75.98
11810;BME280;5962;41.566;23.734;2024-02-16T09:41:18;95896.81;;;7.25;75.44
11810;BME280;5962;41.566;23.734;2024-02-16T09:43:47;95883.38;;;7.33;76.30
11810;BME280;5962;41.566;23.734;2024-02-16T09:46:15;95885.63;;;7.29;77.49
11810;BME280;5962;41.566;23.734;2024-02-16T09:48:47;95876.50;;;7.25;77.68
11810;BME280;5962;41.566;23.734;2024-02-16T09:51:19;95872.00;;;7.45;76.67
11810;BME280;5962;41.566;23.734;2024-02-16T09:53:50;95871.13;;;7.57;76.86
11810;BME280;5962;41.566;23.734;2024-02-16T09:56:22;95871.66;;;7.79;73.19
11810;BME280;5962;41.566;23.734;2024-02-16T09:58:51;95861.09;;;7.79;73.36
11810;BME280;5962;41.566;23.734;2024-02-16T10:01:20;95845.88;;;7.81;74.54
11810;BME280;5962;41.566;23.734;2024-02-16T10:03:50;95852.00;;;8.06;72.41
11810;BME280;5962;41.566;23.734;2024-02-16T10:06:18;95851.19;;;8.12;72.10
11810;BME280;5962;41.566;23.734;2024-02-16T10:08:48;95842.19;;;8.26;69.24
11810;BME280;5962;41.566;23.734;2024-02-16T10:11:17;95839.72;;;8.31;69.94
11810;BME280;5962;41.566;23.734;2024-02-16T10:13:57;95836.97;;;8.43;68.55
11810;BME280;5962;41.566;23.734;2024-02-16T10:16:25;95828.00;;;8.51;67.69
11810;BME280;5962;41.566;23.734;2024-02-16T10:18:56;95827.75;;;8.52;69.55
11810;BME280;5962;41.566;23.734;2024-02-16T10:21:25;95815.94;;;8.55;68.60
11810;BME280;5962;41.566;23.734;2024-02-16T10:24:00;95814.72;;;8.57;68.82
11810;BME280;5962;41.566;23.734;2024-02-16T10:26:31;95814.50;;;8.59;68.71
11810;BME280;5962;41.566;23.734;2024-02-16T10:28:59;95811.25;;;8.57;68.43
11810;BME280;5962;41.566;23.734;2024-02-16T10:31:30;95810.19;;;8.64;66.42
11810;BME280;5962;41.566;23.734;2024-02-16T10:34:02;95803.06;;;8.65;66.45
11810;BME280;5962;41.566;23.734;2024-02-16T10:36:33;95797.28;;;8.74;66.12
11810;BME280;5962;41.566;23.734;2024-02-16T10:39:02;95808.91;;;8.91;63.69
11810;BME280;5962;41.566;23.734;2024-02-16T10:41:33;95795.03;;;8.96;64.06
11810;BME280;5962;41.566;23.734;2024-02-16T10:44:03;95793.19;;;9.14;64.26
11810;BME280;5962;41.566;23.734;2024-02-16T10:46:31;95795.03;;;9.14;63.25
11810;BME280;5962;41.566;23.734;2024-02-16T10:49:01;95795.47;;;9.29;61.96
11810;BME280;5962;41.566;23.734;2024-02-16T10:51:35;95796.06;;;9.31;62.49
11810;BME280;5962;41.566;23.734;2024-02-16T10:54:05;95786.28;;;9.49;60.20
11810;BME280;5962;41.566;23.734;2024-02-16T10:56:35;95779.59;;;9.46;60.35
11810;BME280;5962;41.566;23.734;2024-02-16T10:59:04;95774.97;;;9.42;60.14
11810;BME280;5962;41.566;23.734;2024-02-16T11:01:37;95777.59;;;9.60;58.96
11810;BME280;5962;41.566;23.734;2024-02-16T11:04:07;95777.16;;;9.63;57.97
11810;BME280;5962;41.566;23.734;2024-02-16T11:06:46;95765.13;;;9.78;58.73
11810;BME280;5962;41.566;23.734;2024-02-16T11:09:25;95765.13;;;9.78;57.59
11810;BME280;5962;41.566;23.734;2024-02-16T11:11:54;95758.81;;;9.79;56.72
11810;BME280;5962;41.566;23.734;2024-02-16T11:14:22;95757.69;;;9.87;56.23
11810;BME280;5962;41.566;23.734;2024-02-16T11:16:53;95746.75;;;9.83;56.16
11810;BME280;5962;41.566;23.734;2024-02-16T11:19:24;95740.63;;;9.83;54.74
11810;BME280;5962;41.566;23.734;2024-02-16T11:21:56;95732.25;;;9.86;54.43
11810;BME280;5962;41.566;23.734;2024-02-16T11:24:30;95734.63;;;10.05;52.09
11810;BME280;5962;41.566;23.734;2024-02-16T11:27:01;95741.56;;;10.29;50.63
11810;BME280;5962;41.566;23.734;2024-02-16T11:29:34;95730.19;;;10.29;51.84
11810;BME280;5962;41.566;23.734;2024-02-16T11:32:03;95732.13;;;10.33;53.40
11810;BME280;5962;41.566;23.734;2024-02-16T11:34:33;95728.22;;;10.47;52.90
11810;BME280;5962;41.566;23.734;2024-02-16T11:37:02;95726.84;;;10.44;53.26
11810;BME280;5962;41.566;23.734;2024-02-16T11:39:32;95719.13;;;10.54;51.50
11810;BME280;5962;41.566;23.734;2024-02-16T11:42:04;95719.69;;;10.56;51.53
11810;BME280;5962;41.566;23.734;2024-02-16T11:44:33;95714.38;;;10.68;50.38
11810;BME280;5962;41.566;23.734;2024-02-16T11:47:02;95713.78;;;10.89;49.30
11810;BME280;5962;41.566;23.734;2024-02-16T11:49:32;95708.03;;;10.92;49.86
11810;BME280;5962;41.566;23.734;2024-02-16T11:52:00;95715.03;;;10.98;48.45
11810;BME280;5962;41.566;23.734;2024-02-16T11:54:30;95715.03;;;11.09;48.81
11810;BME280;5962;41.566;23.734;2024-02-16T11:56:58;95702.13;;;11.01;49.27
11810;BME280;5962;41.566;23.734;2024-02-16T11:59:26;95701.31;;;11.01;49.88
11810;BME280;5962;41.566;23.734;2024-02-16T12:01:56;95698.44;;;11.02;50.34
11810;BME280;5962;41.566;23.734;2024-02-16T12:04:26;95697.97;;;10.94;51.23
11810;BME280;5962;41.566;23.734;2024-02-16T12:06:57;95697.97;;;10.94;51.60
11810;BME280;5962;41.566;23.734;2024-02-16T12:09:28;95690.03;;;10.94;51.85
11810;BME280;5962;41.566;23.734;2024-02-16T12:11:58;95690.84;;;11.06;51.74
11810;BME280;5962;41.566;23.734;2024-02-16T12:14:26;95686.78;;;11.03;52.26
11810;BME280;5962;41.566;23.734;2024-02-16T12:16:55;95680.16;;;11.17;51.79
11810;BME280;5962;41.566;23.734;2024-02-16T12:19:24;95681.84;;;11.34;51.56
11810;BME280;5962;41.566;23.734;2024-02-16T12:21:53;95677.22;;;11.41;51.30
11810;BME280;5962;41.566;23.734;2024-02-16T12:24:24;95683.09;;;11.43;51.75
11810;BME280;5962;41.566;23.734;2024-02-16T12:26:52;95673.94;;;11.51;51.47
11810;BME280;5962;41.566;23.734;2024-02-16T12:29:20;95674.41;;;11.76;50.53
11810;BME280;5962;41.566;23.734;2024-02-16T12:31:48;95671.66;;;11.87;50.34
11810;BME280;5962;41.566;23.734;2024-02-16T12:34:16;95666.03;;;12.00;49.76
11810;BME280;5962;41.566;23.734;2024-02-16T12:36:44;95665.34;;;12.05;49.73
11810;BME280;5962;41.566;23.734;2024-02-16T12:39:13;95668.22;;;12.03;49.49
11810;BME280;5962;41.566;23.734;2024-02-16T12:41:44;95652.47;;;11.97;49.89
11810;BME280;5962;41.566;23.734;2024-02-16T12:44:12;95662.50;;;11.95;49.74
11810;BME280;5962;41.566;23.734;2024-02-16T12:46:39;95659.63;;;11.96;50.06
11810;BME280;5962;41.566;23.734;2024-02-16T12:49:09;95656.50;;;11.99;50.07
11810;BME280;5962;41.566;23.734;2024-02-16T12:51:37;95656.97;;;12.13;49.67
11810;BME280;5962;41.566;23.734;2024-02-16T12:54:05;95654.88;;;12.15;49.43
11810;BME280;5962;41.566;23.734;2024-02-16T12:56:33;95652.69;;;12.12;49.51
11810;BME280;5962;41.566;23.734;2024-02-16T12:59:03;95644.59;;;12.02;49.29
11810;BME280;5962;41.566;23.734;2024-02-16T13:01:32;95651.97;;;12.00;49.44
11810;BME280;5962;41.566;23.734;2024-02-16T13:04:00;95651.97;;;12.00;49.62
11810;BME280;5962;41.566;23.734;2024-02-16T13:06:28;95648.75;;;11.98;49.18
11810;BME280;5962;41.566;23.734;2024-02-16T13:08:56;95647.56;;;12.05;49.27
11810;BME280;5962;41.566;23.734;2024-02-16T13:11:24;95641.75;;;12.24;49.00